Time;durP1;ratioP1;P1;durP2;ratioP2;P2;SDS_P1;SDS_P2;PMS_P1;PMS_P2;Temp;Humidity;BMP_temperature;BMP_pressure;BME280_temperature;BME280_humidity;BME280_pressure;Samples;Min_cycle;Max_cycle;Signal;HPM_P1;HPM_P2
2023/10/27 00:00:18;;;;;;;9.85;4.25;;;;;;;;;;4968415;28;96829;-81
2023/10/27 00:02:45;;;;;;;8.95;4.35;;;;;;;;;;4970524;28;94627;-82
2023/10/27 00:05:12;;;;;;;9.82;4.53;;;;;;;;;;4968935;28;92832;-82
2023/10/27 00:07:38;;;;;;;9.68;4.45;;;;;;;;;;4969334;28;92964;-82
2023/10/27 00:10:05;;;;;;;8.43;4.22;;;;;;;;;;4969090;28;93050;-82
2023/10/27 00:12:32;;;;;;;10.43;4.80;;;;;;;;;;4968223;28;92401;-81
2023/10/27 00:14:59;;;;;;;9.50;5.10;;;;;;;;;;4968529;28;92989;-82
2023/10/27 00:17:25;;;;;;;9.77;4.95;;;;;;;;;;4969428;28;92554;-82
2023/10/27 00:19:52;;;;;;;9.02;4.78;;;;;;;;;;4971950;28;92366;-82
2023/10/27 00:22:18;;;;;;;10.13;5.07;;;;;;;;;;4967806;28;93024;-81
2023/10/27 00:24:45;;;;;;;9.27;4.85;;;;;;;;;;4967007;28;95013;-82
2023/10/27 00:27:11;;;;;;;12.70;5.03;;;;;;;;;;4968806;28;95274;-81
2023/10/27 00:29:38;;;;;;;10.70;5.22;;;;;;;;;;4965055;28;93467;-81
2023/10/27 00:32:04;;;;;;;9.82;4.78;;;;;;;;;;4975484;28;92454;-81
2023/10/27 00:34:31;;;;;;;10.32;5.43;;;;;;;;;;4966898;28;100144;-81
2023/10/27 00:36:58;;;;;;;10.60;5.20;;;;;;;;;;4971150;28;93055;-81
2023/10/27 00:39:24;;;;;;;11.65;4.97;;;;;;;;;;4970261;28;92985;-81
2023/10/27 00:41:51;;;;;;;9.77;4.80;;;;;;;;;;4972387;28;92185;-81
2023/10/27 00:44:18;;;;;;;11.07;5.30;;;;;;;;;;4968023;28;93044;-81
2023/10/27 00:46:45;;;;;;;10.35;5.15;;;;;;;;;;4968552;28;93199;-80
2023/10/27 00:49:11;;;;;;;10.35;5.13;;;;;;;;;;4966697;28;95643;-80
2023/10/27 00:51:38;;;;;;;12.10;5.63;;;;;;;;;;4966942;28;92443;-81
2023/10/27 00:54:06;;;;;;;10.32;5.22;;;;;;;;;;4965531;28;92764;-81
2023/10/27 00:56:33;;;;;;;10.38;5.22;;;;;;;;;;4965807;28;97729;-80
2023/10/27 00:59:00;;;;;;;9.48;5.05;;;;;;;;;;4968028;28;92497;-81
2023/10/27 01:01:27;;;;;;;12.10;5.40;;;;;;;;;;4973761;28;94249;-82
2023/10/27 01:03:55;;;;;;;10.50;5.60;;;;;;;;;;4976424;28;92895;-83
2023/10/27 01:06:23;;;;;;;12.55;5.72;;;;;;;;;;4969449;28;92827;-81
2023/10/27 01:08:49;;;;;;;9.65;5.00;;;;;;;;;;4965272;28;93091;-81
2023/10/27 01:11:16;;;;;;;13.02;5.20;;;;;;;;;;4967772;28;92765;-81
2023/10/27 01:13:43;;;;;;;9.90;5.13;;;;;;;;;;4966529;28;94923;-81
2023/10/27 01:16:09;;;;;;;11.10;5.60;;;;;;;;;;4967263;28;93191;-80
2023/10/27 01:18:36;;;;;;;9.82;5.50;;;;;;;;;;4968306;28;93217;-81
2023/10/27 01:21:03;;;;;;;9.85;5.13;;;;;;;;;;4967537;28;93517;-81
2023/10/27 01:23:30;;;;;;;10.15;5.20;;;;;;;;;;4985435;28;94759;-81
2023/10/27 01:25:56;;;;;;;10.02;5.40;;;;;;;;;;4964545;28;92902;-81
2023/10/27 01:28:23;;;;;;;10.45;5.50;;;;;;;;;;4962779;28;93634;-81
2023/10/27 01:30:50;;;;;;;11.52;5.45;;;;;;;;;;4964925;28;91777;-81
2023/10/27 01:33:16;;;;;;;10.02;5.18;;;;;;;;;;4968529;28;92513;-82
2023/10/27 01:35:43;;;;;;;11.73;5.30;;;;;;;;;;4967517;28;93670;-82
2023/10/27 01:38:09;;;;;;;11.05;5.60;;;;;;;;;;4963982;28;95439;-81
2023/10/27 01:40:36;;;;;;;11.30;5.85;;;;;;;;;;4967770;28;95832;-82
2023/10/27 01:43:02;;;;;;;9.98;5.18;;;;;;;;;;4965248;28;94424;-82
2023/10/27 01:45:29;;;;;;;10.82;5.60;;;;;;;;;;4970365;28;92973;-81
2023/10/27 01:47:55;;;;;;;10.18;5.60;;;;;;;;;;4965662;28;95875;-82
2023/10/27 01:50:22;;;;;;;11.13;5.60;;;;;;;;;;4966530;28;92426;-82
2023/10/27 01:52:48;;;;;;;10.23;5.80;;;;;;;;;;4946227;28;95509;-82
2023/10/27 01:55:15;;;;;;;9.38;5.15;;;;;;;;;;4961563;28;92291;-82
2023/10/27 01:57:42;;;;;;;10.40;5.65;;;;;;;;;;4970612;28;92562;-82
2023/10/27 02:00:09;;;;;;;10.52;5.22;;;;;;;;;;4967972;28;94566;-82
2023/10/27 02:02:39;;;;;;;12.75;5.78;;;;;;;;;;4975503;28;97859;-82
2023/10/27 02:05:07;;;;;;;11.48;5.18;;;;;;;;;;4970213;28;93054;-82
2023/10/27 02:07:33;;;;;;;10.07;5.40;;;;;;;;;;4973038;28;93089;-82
2023/10/27 02:10:00;;;;;;;10.57;6.03;;;;;;;;;;4969596;28;93041;-82
2023/10/27 02:12:26;;;;;;;10.32;5.40;;;;;;;;;;4969613;28;93153;-82
2023/10/27 02:14:53;;;;;;;10.68;5.85;;;;;;;;;;4968107;28;95789;-82
2023/10/27 02:17:20;;;;;;;10.68;5.43;;;;;;;;;;4974086;28;92485;-82
2023/10/27 02:19:47;;;;;;;11.68;5.53;;;;;;;;;;4968959;28;95616;-82
2023/10/27 02:22:14;;;;;;;;;;;;;;;;;;4967758;28;94155;-82
2023/10/27 02:24:40;;;;;;;10.05;5.38;;;;;;;;;;4969296;28;92554;-81
2023/10/27 02:27:07;;;;;;;9.80;5.18;;;;;;;;;;4968504;28;94980;-81
2023/10/27 02:29:34;;;;;;;10.43;5.82;;;;;;;;;;4971883;28;93185;-81
2023/10/27 02:32:00;;;;;;;10.95;5.75;;;;;;;;;;4967903;28;93374;-81
2023/10/27 02:34:27;;;;;;;11.07;5.55;;;;;;;;;;4955642;28;92830;-81
2023/10/27 02:36:54;;;;;;;11.68;5.68;;;;;;;;;;4969606;28;92851;-81
2023/10/27 02:39:21;;;;;;;9.35;5.28;;;;;;;;;;4957443;28;95568;-81
2023/10/27 02:41:47;;;;;;;10.20;5.18;;;;;;;;;;4967900;28;93780;-81
2023/10/27 02:44:14;;;;;;;10.02;5.30;;;;;;;;;;4969422;28;91795;-81
2023/10/27 02:46:40;;;;;;;9.68;4.82;;;;;;;;;;4972103;28;95288;-81
2023/10/27 02:49:07;;;;;;;9.80;5.03;;;;;;;;;;4973231;28;93168;-82
2023/10/27 02:51:33;;;;;;;10.93;5.35;;;;;;;;;;4969618;28;95336;-82
2023/10/27 02:54:01;;;;;;;9.63;4.72;;;;;;;;;;4967271;28;95678;-82
2023/10/27 02:56:28;;;;;;;9.40;4.90;;;;;;;;;;4967472;28;92683;-82
2023/10/27 02:58:54;;;;;;;9.82;4.72;;;;;;;;;;4969508;28;92794;-82
2023/10/27 03:01:21;;;;;;;9.45;4.72;;;;;;;;;;4984282;28;94250;-82
2023/10/27 03:03:47;;;;;;;10.60;5.28;;;;;;;;;;4967426;28;92572;-82
2023/10/27 03:06:14;;;;;;;8.63;4.57;;;;;;;;;;4967088;28;93060;-82
2023/10/27 03:08:41;;;;;;;8.75;4.55;;;;;;;;;;4969087;28;92011;-81
2023/10/27 03:11:08;;;;;;;8.45;4.40;;;;;;;;;;4971142;28;92590;-82
2023/10/27 03:13:35;;;;;;;8.73;4.68;;;;;;;;;;4969431;28;93088;-82
2023/10/27 03:16:03;;;;;;;;;;;;;;;;;;4968263;28;95294;-82
2023/10/27 03:18:29;;;;;;;9.35;4.45;;;;;;;;;;4969289;28;121579;-80
2023/10/27 03:20:56;;;;;;;9.02;4.53;;;;;;;;;;4968566;28;93004;-81
2023/10/27 03:23:23;;;;;;;8.77;4.53;;;;;;;;;;4969419;28;92632;-81
2023/10/27 03:25:50;;;;;;;9.32;4.43;;;;;;;;;;4968970;28;92578;-81
2023/10/27 03:28:17;;;;;;;;;;;;;;;;;;4969039;28;93595;-81
2023/10/27 03:30:44;;;;;;;8.30;4.13;;;;;;;;;;4969982;28;96506;-82
2023/10/27 03:33:10;;;;;;;9.63;4.32;;;;;;;;;;4972768;28;92950;-82
2023/10/27 03:35:40;;;;;;;9.02;4.57;;;;;;;;;;4969027;28;93040;-82
2023/10/27 03:38:07;;;;;;;8.98;4.30;;;;;;;;;;4966813;28;93993;-81
2023/10/27 03:40:33;;;;;;;8.40;3.88;;;;;;;;;;4964868;28;97432;-81
2023/10/27 03:43:00;;;;;;;8.18;4.10;;;;;;;;;;4968430;28;92492;-81
2023/10/27 03:45:26;;;;;;;7.60;4.00;;;;;;;;;;4968798;28;93313;-81
2023/10/27 03:47:53;;;;;;;9.07;4.22;;;;;;;;;;4978935;28;93144;-81
2023/10/27 03:50:19;;;;;;;7.70;3.97;;;;;;;;;;4965907;28;92580;-81
2023/10/27 03:52:46;;;;;;;8.68;4.07;;;;;;;;;;4968602;28;93166;-81
2023/10/27 03:55:12;;;;;;;8.40;4.10;;;;;;;;;;4971202;28;93178;-81
2023/10/27 03:57:39;;;;;;;7.80;3.92;;;;;;;;;;4969120;28;92210;-81
2023/10/27 04:00:09;;;;;;;8.02;4.07;;;;;;;;;;4967776;28;93065;-79
2023/10/27 04:02:38;;;;;;;8.30;4.18;;;;;;;;;;4968633;28;92434;-82
2023/10/27 04:05:05;;;;;;;9.75;4.13;;;;;;;;;;4953201;28;94825;-82
2023/10/27 04:07:31;;;;;;;8.68;4.03;;;;;;;;;;4968907;28;93103;-82
2023/10/27 04:09:58;;;;;;;8.18;4.20;;;;;;;;;;4967952;28;94271;-82
2023/10/27 04:12:24;;;;;;;9.13;4.00;;;;;;;;;;4967604;28;92937;-82
2023/10/27 04:14:51;;;;;;;8.70;3.72;;;;;;;;;;4968431;28;94221;-81
2023/10/27 04:17:17;;;;;;;9.57;3.75;;;;;;;;;;4971592;28;92433;-81
2023/10/27 04:19:44;;;;;;;8.65;4.00;;;;;;;;;;4968071;28;93089;-81
2023/10/27 04:22:11;;;;;;;8.90;3.70;;;;;;;;;;4968839;28;92119;-81
2023/10/27 04:24:37;;;;;;;9.48;3.72;;;;;;;;;;4968623;28;92513;-81
2023/10/27 04:27:04;;;;;;;7.50;3.90;;;;;;;;;;4966960;28;93131;-81
2023/10/27 04:29:31;;;;;;;7.95;3.60;;;;;;;;;;4966590;28;94903;-81
2023/10/27 04:31:57;;;;;;;10.18;3.53;;;;;;;;;;4968308;28;94977;-81
2023/10/27 04:34:24;;;;;;;8.00;3.67;;;;;;;;;;4967488;28;93982;-81
2023/10/27 04:36:50;;;;;;;7.88;3.47;;;;;;;;;;4968296;28;92398;-81
2023/10/27 04:39:17;;;;;;;8.55;3.70;;;;;;;;;;4971254;28;93064;-81
2023/10/27 04:41:44;;;;;;;7.05;3.47;;;;;;;;;;4966995;28;92529;-81
2023/10/27 04:44:12;;;;;;;7.28;3.40;;;;;;;;;;4967361;28;93182;-80
2023/10/27 04:46:38;;;;;;;7.97;3.45;;;;;;;;;;4972586;28;92262;-81
2023/10/27 04:49:04;;;;;;;7.65;3.53;;;;;;;;;;4973195;28;92521;-80
2023/10/27 04:51:31;;;;;;;7.30;3.35;;;;;;;;;;4968556;28;92783;-81
2023/10/27 04:53:58;;;;;;;6.68;3.17;;;;;;;;;;4966160;28;95638;-81
2023/10/27 04:56:24;;;;;;;7.15;3.38;;;;;;;;;;4966944;28;92650;-80
2023/10/27 04:58:51;;;;;;;8.10;3.10;;;;;;;;;;4962547;28;93065;-81
2023/10/27 05:01:22;;;;;;;6.80;3.15;;;;;;;;;;4971220;28;93525;-81
2023/10/27 05:03:50;;;;;;;6.95;3.17;;;;;;;;;;4965600;28;93109;-80
2023/10/27 05:06:16;;;;;;;8.18;3.50;;;;;;;;;;4968036;28;93079;-81
2023/10/27 05:08:43;;;;;;;8.05;3.50;;;;;;;;;;4967841;28;92488;-81
2023/10/27 05:11:09;;;;;;;6.72;3.33;;;;;;;;;;4968555;28;92792;-81
2023/10/27 05:13:36;;;;;;;7.85;3.40;;;;;;;;;;4968578;28;93622;-81
2023/10/27 05:16:03;;;;;;;7.00;3.20;;;;;;;;;;4968014;28;93418;-81
2023/10/27 05:18:30;;;;;;;7.78;3.10;;;;;;;;;;4965313;28;95641;-81
2023/10/27 05:20:56;;;;;;;8.02;3.45;;;;;;;;;;4970584;28;93771;-81
2023/10/27 05:23:23;;;;;;;7.05;2.85;;;;;;;;;;4967878;28;92931;-81
2023/10/27 05:25:50;;;;;;;7.13;3.00;;;;;;;;;;4966134;28;93113;-82
2023/10/27 05:28:16;;;;;;;6.30;2.78;;;;;;;;;;4965939;28;92792;-82
2023/10/27 05:30:46;;;;;;;6.32;2.75;;;;;;;;;;4969109;28;92617;-82
2023/10/27 05:33:12;;;;;;;7.63;2.83;;;;;;;;;;4971317;28;94967;-82
2023/10/27 05:35:39;;;;;;;7.75;3.17;;;;;;;;;;4971621;28;92052;-82
2023/10/27 05:38:05;;;;;;;7.20;3.03;;;;;;;;;;4969661;28;95447;-82
2023/10/27 05:40:33;;;;;;;7.03;2.85;;;;;;;;;;4985087;28;100695;-82
2023/10/27 05:43:01;;;;;;;7.10;2.88;;;;;;;;;;4973499;28;95531;-81
2023/10/27 05:45:28;;;;;;;6.18;2.60;;;;;;;;;;4969206;28;93108;-82
2023/10/27 05:47:54;;;;;;;7.18;2.70;;;;;;;;;;4981304;28;92398;-82
2023/10/27 05:50:21;;;;;;;6.80;2.90;;;;;;;;;;4969858;28;93610;-82
2023/10/27 05:52:47;;;;;;;6.63;2.75;;;;;;;;;;4970996;28;93153;-82
2023/10/27 05:55:14;;;;;;;6.13;2.58;;;;;;;;;;4970846;28;92613;-82
2023/10/27 05:57:41;;;;;;;7.05;2.70;;;;;;;;;;4970966;28;93035;-82
2023/10/27 06:00:08;;;;;;;6.28;2.70;;;;;;;;;;4971583;28;92254;-81
2023/10/27 06:02:34;;;;;;;5.80;2.80;;;;;;;;;;4975811;28;92476;-80
2023/10/27 06:05:01;;;;;;;5.60;2.38;;;;;;;;;;4977909;28;92740;-81
2023/10/27 06:07:28;;;;;;;7.18;2.78;;;;;;;;;;4971625;28;94873;-81
2023/10/27 06:09:54;;;;;;;8.85;2.80;;;;;;;;;;4970531;28;95273;-82
2023/10/27 06:12:21;;;;;;;6.55;2.80;;;;;;;;;;4970022;28;93128;-82
2023/10/27 06:14:47;;;;;;;7.75;3.03;;;;;;;;;;4972252;28;92399;-82
2023/10/27 06:17:14;;;;;;;6.97;3.00;;;;;;;;;;4970197;28;92705;-82
2023/10/27 06:19:40;;;;;;;7.10;2.85;;;;;;;;;;4968295;28;93681;-82
2023/10/27 06:22:09;;;;;;;7.07;2.78;;;;;;;;;;4968320;28;92446;-81
2023/10/27 06:24:35;;;;;;;6.85;2.60;;;;;;;;;;4970068;28;92709;-81
2023/10/27 06:27:03;;;;;;;5.70;2.63;;;;;;;;;;4971776;28;93795;-81
2023/10/27 06:29:29;;;;;;;;;;;;;;;;;;4970000;28;92932;-81
2023/10/27 06:31:55;;;;;;;6.30;2.50;;;;;;;;;;4968958;28;117404;-81
2023/10/27 06:34:22;;;;;;;6.60;2.50;;;;;;;;;;4969638;28;92546;-81
2023/10/27 06:36:49;;;;;;;6.35;2.55;;;;;;;;;;4970489;28;92773;-81
2023/10/27 06:39:15;;;;;;;6.07;2.50;;;;;;;;;;4969611;28;93096;-81
2023/10/27 06:41:42;;;;;;;6.10;2.50;;;;;;;;;;4969990;28;92488;-81
2023/10/27 06:44:08;;;;;;;5.93;2.30;;;;;;;;;;4969513;28;93297;-80
2023/10/27 06:46:34;;;;;;;5.38;2.35;;;;;;;;;;4971789;28;93410;-81
2023/10/27 06:49:02;;;;;;;6.35;2.17;;;;;;;;;;4977794;28;92183;-81
2023/10/27 06:51:29;;;;;;;5.15;2.35;;;;;;;;;;4969367;28;93131;-81
2023/10/27 06:53:56;;;;;;;4.95;2.20;;;;;;;;;;4968473;28;92730;-81
2023/10/27 06:56:23;;;;;;;4.78;2.30;;;;;;;;;;4966105;28;94987;-81
2023/10/27 06:58:49;;;;;;;5.75;2.13;;;;;;;;;;4969306;28;93669;-81
2023/10/27 07:01:16;;;;;;;7.72;2.25;;;;;;;;;;4969674;28;93091;-81
2023/10/27 07:03:42;;;;;;;4.78;2.00;;;;;;;;;;4969589;28;92803;-80
2023/10/27 07:06:10;;;;;;;6.57;2.17;;;;;;;;;;4969034;28;93492;-81
2023/10/27 07:08:37;;;;;;;8.80;2.20;;;;;;;;;;4969500;28;92497;-80
2023/10/27 07:11:04;;;;;;;5.97;2.40;;;;;;;;;;4971782;28;93257;-80
2023/10/27 07:13:30;;;;;;;6.68;2.15;;;;;;;;;;4970173;28;91796;-81
2023/10/27 07:15:57;;;;;;;4.10;1.80;;;;;;;;;;4968090;28;92506;-79
2023/10/27 07:18:24;;;;;;;5.97;2.30;;;;;;;;;;4970968;28;93244;-79
2023/10/27 07:20:53;;;;;;;5.57;2.28;;;;;;;;;;4964093;28;95379;-79
2023/10/27 07:23:20;;;;;;;4.65;2.10;;;;;;;;;;4968838;28;95531;-79
2023/10/27 07:25:46;;;;;;;4.88;2.03;;;;;;;;;;4968579;28;92998;-79
2023/10/27 07:28:13;;;;;;;7.28;1.92;;;;;;;;;;4968320;28;92598;-83
2023/10/27 07:30:39;;;;;;;4.72;2.00;;;;;;;;;;4969657;28;92827;-82
2023/10/27 07:33:06;;;;;;;5.53;2.08;;;;;;;;;;4968684;28;92952;-81
2023/10/27 07:35:32;;;;;;;5.28;2.10;;;;;;;;;;4968347;28;92789;-87
2023/10/27 07:37:59;;;;;;;6.15;2.05;;;;;;;;;;4968994;28;92261;-83
2023/10/27 07:40:26;;;;;;;6.47;2.22;;;;;;;;;;4965605;28;92391;-82
2023/10/27 07:42:57;;;;;;;6.07;2.38;;;;;;;;;;4968826;28;93587;-82
2023/10/27 07:45:25;;;;;;;5.15;1.92;;;;;;;;;;4963612;28;96992;-82
2023/10/27 07:47:51;;;;;;;5.80;1.90;;;;;;;;;;4957573;28;93069;-83
2023/10/27 07:50:18;;;;;;;5.72;1.83;;;;;;;;;;4970006;28;92995;-83
2023/10/27 07:52:45;;;;;;;5.88;1.90;;;;;;;;;;4968715;28;95563;-83
2023/10/27 07:55:12;;;;;;;4.43;1.90;;;;;;;;;;4971724;28;92975;-83
2023/10/27 07:57:39;;;;;;;3.88;1.52;;;;;;;;;;4967633;28;92761;-82
2023/10/27 08:00:09;;;;;;;3.58;1.88;;;;;;;;;;4968578;28;92552;-83
2023/10/27 08:02:38;;;;;;;4.68;1.60;;;;;;;;;;4968860;28;97500;-84
2023/10/27 08:05:06;;;;;;;4.25;1.67;;;;;;;;;;4955085;28;93601;-84
2023/10/27 08:07:34;;;;;;;4.43;1.80;;;;;;;;;;4948951;28;93872;-84
2023/10/27 08:10:01;;;;;;;3.10;1.58;;;;;;;;;;4958591;28;95287;-85
2023/10/27 08:12:27;;;;;;;3.17;1.55;;;;;;;;;;4967109;28;93366;-84
2023/10/27 08:14:54;;;;;;;3.67;1.63;;;;;;;;;;4970607;28;92931;-83
2023/10/27 08:17:21;;;;;;;4.05;1.73;;;;;;;;;;4967487;28;93137;-84
2023/10/27 08:19:47;;;;;;;4.38;1.70;;;;;;;;;;4970021;28;93229;-84
2023/10/27 08:22:14;;;;;;;3.67;1.63;;;;;;;;;;4966658;28;92815;-83
2023/10/27 08:24:40;;;;;;;6.82;1.60;;;;;;;;;;4967175;28;93194;-84
2023/10/27 08:27:07;;;;;;;4.57;1.60;;;;;;;;;;4968454;28;91656;-82
2023/10/27 08:29:33;;;;;;;2.58;1.30;;;;;;;;;;4963918;28;94246;-84
2023/10/27 08:32:00;;;;;;;4.22;1.40;;;;;;;;;;4960636;28;93792;-83
2023/10/27 08:34:26;;;;;;;3.42;1.42;;;;;;;;;;4947609;28;95086;-84
2023/10/27 08:36:53;;;;;;;3.72;1.60;;;;;;;;;;4970853;28;95177;-84
2023/10/27 08:39:20;;;;;;;3.38;1.60;;;;;;;;;;4967715;28;93674;-83
2023/10/27 08:41:47;;;;;;;4.10;1.50;;;;;;;;;;4966418;28;92790;-83
2023/10/27 08:44:13;;;;;;;3.20;1.60;;;;;;;;;;4966634;28;93151;-82
2023/10/27 08:46:43;;;;;;;2.92;1.50;;;;;;;;;;4968252;28;92883;-84
2023/10/27 08:49:10;;;;;;;5.10;1.38;;;;;;;;;;4968122;28;92931;-83
2023/10/27 08:51:38;;;;;;;4.30;1.52;;;;;;;;;;4969006;28;92465;-83
2023/10/27 08:54:05;;;;;;;9.25;2.20;;;;;;;;;;4965728;28;92521;-83
2023/10/27 08:56:32;;;;;;;10.55;2.45;;;;;;;;;;4967466;28;92638;-83
2023/10/27 08:59:00;;;;;;;9.10;2.40;;;;;;;;;;4966773;28;95470;-84
2023/10/27 09:01:27;;;;;;;10.27;2.30;;;;;;;;;;4966408;28;95517;-84
2023/10/27 09:04:10;;;;;;;10.25;2.53;;;;;;;;;;4967404;28;93353;-84
2023/10/27 09:06:37;;;;;;;8.05;2.40;;;;;;;;;;4970294;28;92549;-84
2023/10/27 09:09:05;;;;;;;10.55;2.60;;;;;;;;;;4969396;28;92902;-83
2023/10/27 09:11:51;;;;;;;8.65;2.25;;;;;;;;;;4969110;28;93390;-84
2023/10/27 09:14:18;;;;;;;;;;;;;;;;;;4970519;28;92586;-83
2023/10/27 09:16:45;;;;;;;8.27;2.10;;;;;;;;;;4977686;28;110177;-83
2023/10/27 09:19:19;;;;;;;10.85;2.60;;;;;;;;;;4974105;28;96551;-83
2023/10/27 09:21:46;;;;;;;9.25;2.08;;;;;;;;;;4973268;28;92366;-83
2023/10/27 09:24:22;;;;;;;9.57;2.20;;;;;;;;;;4968502;28;95390;-82
2023/10/27 09:26:49;;;;;;;7.72;2.30;;;;;;;;;;4962211;28;92813;-82
2023/10/27 09:29:16;;;;;;;6.40;2.00;;;;;;;;;;4957314;28;92738;-83
2023/10/27 09:31:45;;;;;;;7.25;2.13;;;;;;;;;;4971361;28;93070;-82
2023/10/27 09:34:16;;;;;;;7.97;1.92;;;;;;;;;;4970260;28;92631;-80
2023/10/27 09:36:44;;;;;;;10.75;2.17;;;;;;;;;;4970146;28;92723;-81
2023/10/27 09:39:11;;;;;;;8.52;2.22;;;;;;;;;;4970186;28;93294;-82
2023/10/27 09:41:38;;;;;;;7.63;2.28;;;;;;;;;;4961287;28;91856;-82
2023/10/27 09:44:06;;;;;;;8.88;2.40;;;;;;;;;;4969406;28;93271;-81
2023/10/27 09:46:35;;;;;;;5.63;1.85;;;;;;;;;;4962837;28;93593;-83
2023/10/27 09:49:03;;;;;;;6.93;2.03;;;;;;;;;;4969099;28;94829;-82
2023/10/27 09:51:41;;;;;;;7.28;1.98;;;;;;;;;;4962089;28;93367;-82
2023/10/27 09:54:08;;;;;;;;;;;;;;;;;;4968891;28;92416;-81
2023/10/27 09:56:34;;;;;;;6.75;2.10;;;;;;;;;;4970767;28;120143;-83
2023/10/27 09:59:01;;;;;;;6.55;1.70;;;;;;;;;;4969726;28;93212;-83
2023/10/27 10:01:28;;;;;;;7.32;2.10;;;;;;;;;;4969784;28;92740;-82
2023/10/27 10:03:54;;;;;;;6.72;2.13;;;;;;;;;;4972660;28;94129;-83
2023/10/27 10:06:23;;;;;;;6.18;2.00;;;;;;;;;;4964202;28;98159;-82
2023/10/27 10:09:09;;;;;;;6.45;2.08;;;;;;;;;;4970080;28;93231;-82
2023/10/27 10:11:55;;;;;;;5.75;2.17;;;;;;;;;;4970159;28;93760;-82
2023/10/27 10:14:45;;;;;;;5.90;2.03;;;;;;;;;;4968959;28;94998;-82
2023/10/27 10:17:12;;;;;;;7.35;1.80;;;;;;;;;;4965635;28;95127;-83
2023/10/27 10:19:46;;;;;;;5.35;1.80;;;;;;;;;;4970057;28;93126;-83
2023/10/27 10:22:33;;;;;;;5.97;1.80;;;;;;;;;;4969371;28;92478;-83
2023/10/27 10:25:19;;;;;;;6.10;1.88;;;;;;;;;;4958878;28;93400;-82
2023/10/27 10:28:17;;;;;;;5.88;1.77;;;;;;;;;;4960836;28;92482;-83
2023/10/27 10:30:45;;;;;;;6.47;1.90;;;;;;;;;;4971788;28;98587;-83
2023/10/27 10:33:28;;;;;;;5.63;1.67;;;;;;;;;;4976605;28;92328;-82
2023/10/27 10:36:14;;;;;;;4.65;1.80;;;;;;;;;;4971061;28;92720;-82
2023/10/27 10:38:43;;;;;;;7.93;1.80;;;;;;;;;;4967591;28;100669;-82
2023/10/27 10:41:09;;;;;;;5.80;1.80;;;;;;;;;;4968958;28;95801;-82
2023/10/27 10:43:41;;;;;;;4.65;1.80;;;;;;;;;;4976203;28;92604;-83
2023/10/27 10:46:12;;;;;;;4.40;1.90;;;;;;;;;;4971495;28;92871;-82
2023/10/27 10:48:43;;;;;;;5.15;1.73;;;;;;;;;;4970060;28;92902;-82
2023/10/27 10:53:55;;;;;;;5.80;1.83;;;;;;;;;;4969705;28;92946;-82
2023/10/27 10:56:22;;;;;;;4.57;1.80;;;;;;;;;;4968939;28;92914;-83
2023/10/27 10:58:49;;;;;;;5.68;1.70;;;;;;;;;;4969667;28;92820;-82
2023/10/27 11:01:19;;;;;;;5.82;1.70;;;;;;;;;;4968962;28;93651;-82
2023/10/27 11:03:50;;;;;;;4.75;1.70;;;;;;;;;;4955401;28;93117;-81
2023/10/27 11:06:20;;;;;;;4.78;1.67;;;;;;;;;;4947477;28;95198;-82
2023/10/27 11:08:47;;;;;;;5.70;2.10;;;;;;;;;;4948672;28;94095;-82
2023/10/27 11:11:17;;;;;;;4.35;1.50;;;;;;;;;;4935984;28;93089;-81
2023/10/27 11:13:44;;;;;;;5.00;1.63;;;;;;;;;;4952734;28;92968;-81
2023/10/27 11:16:14;;;;;;;4.60;1.75;;;;;;;;;;4948189;28;92721;-82
2023/10/27 11:18:42;;;;;;;3.45;1.70;;;;;;;;;;4949043;28;92818;-82
2023/10/27 11:21:18;;;;;;;4.75;1.70;;;;;;;;;;4943137;28;93705;-80
2023/10/27 11:23:49;;;;;;;5.07;1.70;;;;;;;;;;4945765;28;91825;-79
2023/10/27 11:26:17;;;;;;;3.88;1.67;;;;;;;;;;4949731;28;92835;-79
2023/10/27 11:28:44;;;;;;;5.47;1.52;;;;;;;;;;4965816;28;93252;-78
2023/10/27 11:31:17;;;;;;;4.55;1.80;;;;;;;;;;4957224;28;95579;-79
2023/10/27 11:34:05;;;;;;;5.53;1.65;;;;;;;;;;4971410;28;95332;-79
2023/10/27 11:36:42;;;;;;;5.75;1.80;;;;;;;;;;4968246;28;92898;-78
2023/10/27 11:39:19;;;;;;;6.13;1.75;;;;;;;;;;4966955;28;93346;-78
2023/10/27 11:41:58;;;;;;;7.07;1.80;;;;;;;;;;4968509;28;93632;-79
2023/10/27 11:44:25;;;;;;;5.13;1.77;;;;;;;;;;4970008;28;92966;-78
2023/10/27 11:46:56;;;;;;;4.22;1.60;;;;;;;;;;4965498;28;93209;-79
2023/10/27 11:49:23;;;;;;;5.38;1.80;;;;;;;;;;4958631;28;92299;-78
2023/10/27 11:51:50;;;;;;;;;;;;;;;;;;4966588;28;92705;-79
2023/10/27 11:54:16;;;;;;;4.47;1.40;;;;;;;;;;4965340;28;116402;-78
2023/10/27 11:56:43;;;;;;;4.30;1.50;;;;;;;;;;4968633;28;94767;-79
2023/10/27 11:59:10;;;;;;;4.65;1.70;;;;;;;;;;4967967;28;94009;-78
2023/10/27 12:01:37;;;;;;;4.28;1.55;;;;;;;;;;4967724;28;93177;-79
2023/10/27 12:04:05;;;;;;;5.10;1.60;;;;;;;;;;4968039;28;92635;-78
2023/10/27 12:06:32;;;;;;;4.63;1.73;;;;;;;;;;4967753;28;92880;-79
2023/10/27 12:08:58;;;;;;;5.38;1.70;;;;;;;;;;4967265;28;93088;-79
2023/10/27 12:11:25;;;;;;;3.58;1.42;;;;;;;;;;4967486;28;94593;-79
2023/10/27 12:13:51;;;;;;;4.32;1.70;;;;;;;;;;4968807;28;92290;-79
2023/10/27 12:16:18;;;;;;;3.88;1.50;;;;;;;;;;4966701;28;92563;-79
2023/10/27 12:18:44;;;;;;;5.78;1.60;;;;;;;;;;4970924;28;92886;-79
2023/10/27 12:21:11;;;;;;;4.65;1.70;;;;;;;;;;4965905;28;96029;-79
2023/10/27 12:23:38;;;;;;;5.72;1.65;;;;;;;;;;4967045;28;92478;-79
2023/10/27 12:26:04;;;;;;;3.42;1.58;;;;;;;;;;4968058;28;92777;-79
2023/10/27 12:28:31;;;;;;;4.85;1.70;;;;;;;;;;4966832;28;93064;-79
2023/10/27 12:30:58;;;;;;;2.90;1.38;;;;;;;;;;4968427;28;92500;-79
2023/10/27 12:33:24;;;;;;;;;;;;;;;;;;4966897;28;95420;-78
2023/10/27 12:35:51;;;;;;;5.45;1.88;;;;;;;;;;4967858;28;116894;-78
2023/10/27 12:38:18;;;;;;;5.47;1.60;;;;;;;;;;4968111;28;91732;-79
2023/10/27 12:40:48;;;;;;;4.13;1.70;;;;;;;;;;4969726;28;94033;-79
2023/10/27 12:43:14;;;;;;;6.82;1.70;;;;;;;;;;4967198;28;93073;-79
2023/10/27 12:45:42;;;;;;;4.00;1.50;;;;;;;;;;4965946;28;94959;-79
2023/10/27 12:48:08;;;;;;;3.35;1.40;;;;;;;;;;4967027;28;93197;-78
2023/10/27 12:50:36;;;;;;;3.70;1.50;;;;;;;;;;4966775;28;92404;-79
2023/10/27 12:53:03;;;;;;;3.75;1.45;;;;;;;;;;4968460;28;93332;-79
2023/10/27 12:55:30;;;;;;;4.05;1.75;;;;;;;;;;4962706;28;93296;-78
2023/10/27 12:58:03;;;;;;;3.95;1.40;;;;;;;;;;4967596;28;92642;-80
2023/10/27 13:00:30;;;;;;;3.65;1.40;;;;;;;;;;4964555;28;95961;-80
2023/10/27 13:02:58;;;;;;;3.72;1.30;;;;;;;;;;4970764;28;92520;-79
2023/10/27 13:05:26;;;;;;;4.07;1.30;;;;;;;;;;4967240;28;92473;-80
2023/10/27 13:07:52;;;;;;;4.68;1.65;;;;;;;;;;4967216;28;93274;-80
2023/10/27 13:10:19;;;;;;;3.50;1.58;;;;;;;;;;4965391;28;94867;-80
2023/10/27 13:12:46;;;;;;;5.40;1.40;;;;;;;;;;4966257;28;95150;-79
2023/10/27 13:15:13;;;;;;;2.95;1.33;;;;;;;;;;4967659;28;93305;-80
2023/10/27 13:17:39;;;;;;;3.13;1.40;;;;;;;;;;4960116;28;92454;-79
2023/10/27 13:20:06;;;;;;;2.80;1.20;;;;;;;;;;4960981;28;92730;-80
2023/10/27 13:22:33;;;;;;;2.85;1.20;;;;;;;;;;4963744;28;97885;-79
2023/10/27 13:25:00;;;;;;;3.78;1.52;;;;;;;;;;4963811;28;93049;-80
2023/10/27 13:27:27;;;;;;;4.80;1.40;;;;;;;;;;4952218;28;92350;-80
2023/10/27 13:30:04;;;;;;;2.05;1.30;;;;;;;;;;4960761;28;93519;-80
2023/10/27 13:32:31;;;;;;;3.53;1.40;;;;;;;;;;4965546;28;92873;-79
2023/10/27 13:34:58;;;;;;;4.43;1.48;;;;;;;;;;4960334;28;95553;-80
2023/10/27 13:37:25;;;;;;;4.90;1.40;;;;;;;;;;4957107;28;92741;-80
2023/10/27 13:39:51;;;;;;;3.72;1.33;;;;;;;;;;4965416;28;93024;-80
2023/10/27 13:42:18;;;;;;;4.05;1.38;;;;;;;;;;4956916;28;93218;-80
2023/10/27 13:44:45;;;;;;;4.00;1.50;;;;;;;;;;4968341;28;92410;-79
2023/10/27 13:47:12;;;;;;;4.38;1.38;;;;;;;;;;4967340;28;93467;-80
2023/10/27 13:49:38;;;;;;;5.18;1.50;;;;;;;;;;4965781;28;92441;-79
2023/10/27 13:52:06;;;;;;;3.67;1.40;;;;;;;;;;4966171;28;96852;-81
2023/10/27 13:54:33;;;;;;;2.60;1.30;;;;;;;;;;4968468;28;97653;-80
2023/10/27 13:56:59;;;;;;;;;;;;;;;;;;4957276;28;96324;-80
2023/10/27 13:59:26;;;;;;;6.28;1.50;;;;;;;;;;4966006;28;110423;-80
2023/10/27 14:01:52;;;;;;;4.85;1.52;;;;;;;;;;4976551;28;93431;-80
2023/10/27 14:04:19;;;;;;;4.10;1.48;;;;;;;;;;4968942;28;92675;-79
2023/10/27 14:06:48;;;;;;;3.65;1.35;;;;;;;;;;4954263;28;96452;-80
2023/10/27 14:09:15;;;;;;;3.65;1.40;;;;;;;;;;4965922;28;93071;-80
2023/10/27 14:11:42;;;;;;;3.25;1.30;;;;;;;;;;4968732;28;92796;-79
2023/10/27 14:14:09;;;;;;;4.40;1.40;;;;;;;;;;4968066;28;93678;-78
2023/10/27 14:16:35;;;;;;;3.95;1.50;;;;;;;;;;4968069;28;92178;-80
2023/10/27 14:19:02;;;;;;;4.93;1.52;;;;;;;;;;4969067;28;92419;-80
2023/10/27 14:21:31;;;;;;;4.28;1.65;;;;;;;;;;4967621;28;93110;-79
2023/10/27 14:23:57;;;;;;;3.10;1.50;;;;;;;;;;4965258;28;95415;-79
2023/10/27 14:26:24;;;;;;;4.25;1.38;;;;;;;;;;4962324;27;95077;-80
2023/10/27 14:28:51;;;;;;;3.97;1.60;;;;;;;;;;4968264;28;94337;-80
2023/10/27 14:31:17;;;;;;;;;;;;;;;;;;4965581;28;92666;-80
2023/10/27 14:33:44;;;;;;;3.58;1.42;;;;;;;;;;4968132;28;93132;-80
2023/10/27 14:36:12;;;;;;;3.35;1.50;;;;;;;;;;4964232;28;92617;-79
2023/10/27 14:38:39;;;;;;;4.43;1.70;;;;;;;;;;4984652;28;92987;-79
2023/10/27 14:41:10;;;;;;;3.50;1.60;;;;;;;;;;4966162;28;92389;-80
2023/10/27 14:43:37;;;;;;;4.65;1.58;;;;;;;;;;4966223;28;92501;-80
2023/10/27 14:46:04;;;;;;;3.28;1.50;;;;;;;;;;4965636;27;92855;-80
2023/10/27 14:48:30;;;;;;;4.00;1.50;;;;;;;;;;4964303;28;96495;-80